Wheatland, North Dakota
Current Conditions -  °F | °C
As of 7:11 AM on Monday 22 Dec 2014 (Local Time) from KFAR Reporting Station
Haze Haze  
Wind Chill: 30°   Ceiling: 400
Heat Index: 38°   Visibility: 2.5mi
Dew Point: 36°   Wind: 12mph
Humidity: 93%   Direction: 140°SE
Pressure: 29.49"   Gusts: NA
Location:  46.91°N, 97.34°W
Report Text: KFAR 221311Z 14010KT 2 1/2SM BR OVC004 03/02 A2949 RMK AO2 T00330022
Loading
Personal Weather Stations






























Interactive Weather Map New forecast layout! Learn more

10-Day Weather Forecast

Advertisements
Track Severe Weather on mobile